createdAt,value
2019-05-06T00:02:24.871Z,37.06
2019-05-06T00:04:54.449Z,37.08
2019-05-06T00:07:24.353Z,37.07
2019-05-06T00:09:54.030Z,37.10
2019-05-06T00:12:23.998Z,37.09
2019-05-06T00:14:54.201Z,37.11
2019-05-06T00:17:24.037Z,37.22
2019-05-06T00:19:54.045Z,37.34
2019-05-06T00:22:24.963Z,37.31
2019-05-06T00:25:00.785Z,37.32
2019-05-06T00:27:40.345Z,37.32
2019-05-06T00:30:09.890Z,37.30
2019-05-06T00:32:39.619Z,37.29
2019-05-06T00:35:09.175Z,37.29
2019-05-06T00:37:38.793Z,37.35
2019-05-06T00:40:28.733Z,37.29
2019-05-06T00:43:06.245Z,37.27
2019-05-06T00:45:35.905Z,37.29
2019-05-06T00:48:05.435Z,37.26
2019-05-06T00:50:35.007Z,37.24
2019-05-06T00:53:06.238Z,37.22
2019-05-06T00:55:35.803Z,37.25
2019-05-06T00:58:05.364Z,37.21
2019-05-06T01:00:38.134Z,37.13
2019-05-06T01:03:08.025Z,37.18
2019-05-06T01:05:37.581Z,37.22
2019-05-06T01:08:07.157Z,37.20
2019-05-06T01:10:36.796Z,37.17
2019-05-06T01:13:40.779Z,37.17
2019-05-06T01:16:12.019Z,37.15
2019-05-06T01:18:43.478Z,37.11
2019-05-06T01:21:14.586Z,37.07
2019-05-06T01:23:44.709Z,37.11
2019-05-06T01:26:15.326Z,37.15
2019-05-06T01:28:45.379Z,37.14
2019-05-06T01:31:15.133Z,37.20
2019-05-06T01:33:45.412Z,37.12
2019-05-06T01:36:15.167Z,37.12
2019-05-06T01:38:55.058Z,37.15
2019-05-06T01:41:49.471Z,37.17
2019-05-06T01:44:19.218Z,37.12
2019-05-06T01:46:48.761Z,37.17
2019-05-06T01:49:18.335Z,37.17
2019-05-06T01:51:47.935Z,37.22
2019-05-06T01:54:17.508Z,37.08
2019-05-06T01:56:47.077Z,37.11
2019-05-06T01:59:16.620Z,37.18
2019-05-06T02:01:57.445Z,37.22
2019-05-06T02:04:17.437Z,37.14
2019-05-06T02:06:47.005Z,37.12
2019-05-06T02:09:16.688Z,37.15
2019-05-06T02:11:48.016Z,37.24
2019-05-06T02:14:18.436Z,37.16
2019-05-06T02:16:47.970Z,37.19
2019-05-06T02:19:17.552Z,37.17
2019-05-06T02:22:18.159Z,37.18
2019-05-06T02:24:53.535Z,37.27
2019-05-06T02:27:24.741Z,37.26
2019-05-06T02:30:15.094Z,37.18
2019-05-06T02:32:58.376Z,37.24
2019-05-06T02:35:35.979Z,37.26
2019-05-06T02:38:07.271Z,37.22
2019-05-06T02:40:36.865Z,37.22
2019-05-06T02:43:06.408Z,37.20
2019-05-06T02:45:35.977Z,37.31
2019-05-06T02:48:13.960Z,37.78
2019-05-06T02:51:03.750Z,38.23
2019-05-06T02:53:33.563Z,38.15
2019-05-06T02:56:04.537Z,38.28
2019-05-06T02:58:34.576Z,38.48
2019-05-06T03:01:04.231Z,39.04
2019-05-06T03:03:34.128Z,39.59
2019-05-06T03:06:04.495Z,39.78
2019-05-06T03:08:34.503Z,40.24
2019-05-06T03:11:04.564Z,40.32
2019-05-06T03:13:34.477Z,40.79
2019-05-06T03:16:06.001Z,40.49
2019-05-06T03:18:35.379Z,40.35
2019-05-06T03:21:24.470Z,40.25
2019-05-06T03:24:07.517Z,40.26
2019-05-06T03:26:35.615Z,40.09
2019-05-06T03:29:05.193Z,40.02
2019-05-06T03:31:36.387Z,39.85
2019-05-06T03:34:35.456Z,39.72
2019-05-06T03:36:41.200Z,39.60
2019-05-06T03:39:10.107Z,39.55
2019-05-06T03:41:39.688Z,39.46
2019-05-06T03:44:09.691Z,39.39
2019-05-06T03:47:05.779Z,39.30
2019-05-06T03:49:38.231Z,39.22
2019-05-06T03:52:08.228Z,39.21
2019-05-06T03:54:38.337Z,39.14
2019-05-06T03:57:07.900Z,39.15
2019-05-06T03:59:38.609Z,39.08
2019-05-06T04:02:09.322Z,39.06
2019-05-06T04:04:38.895Z,39.08
2019-05-06T04:07:08.539Z,39.05
2019-05-06T04:09:38.158Z,39.08
2019-05-06T04:12:07.719Z,39.06
2019-05-06T04:14:37.191Z,39.13
2019-05-06T04:17:13.201Z,39.19
2019-05-06T04:19:46.631Z,39.15
2019-05-06T04:22:25.120Z,39.10
2019-05-06T04:25:19.305Z,39.36
2019-05-06T04:27:53.713Z,39.70
2019-05-06T04:30:24.257Z,40.08
2019-05-06T04:32:54.080Z,40.13
2019-05-06T04:35:23.651Z,40.19
2019-05-06T04:37:54.008Z,40.09
2019-05-06T04:40:24.179Z,39.99
2019-05-06T04:42:53.733Z,39.94
2019-05-06T04:45:23.870Z,40.08
2019-05-06T04:47:54.081Z,41.10
2019-05-06T04:50:24.302Z,42.14
2019-05-06T04:53:04.595Z,42.37
2019-05-06T04:55:35.066Z,42.49
2019-05-06T04:58:05.157Z,42.46
2019-05-06T05:00:35.126Z,43.19
2019-05-06T05:03:05.180Z,43.51
2019-05-06T05:05:34.881Z,43.17
2019-05-06T05:08:04.715Z,43.17
2019-05-06T05:10:43.664Z,42.97
2019-05-06T05:13:25.720Z,42.88
2019-05-06T05:16:04.421Z,42.57
2019-05-06T05:18:42.505Z,42.45
2019-05-06T05:21:12.071Z,42.28
2019-05-06T05:23:42.865Z,42.06
2019-05-06T05:26:12.494Z,41.89
2019-05-06T05:28:42.928Z,41.81
2019-05-06T05:31:12.529Z,41.81
2019-05-06T05:33:42.414Z,41.79
2019-05-06T05:36:12.378Z,41.63
2019-05-06T05:38:42.945Z,41.58
2019-05-06T05:41:12.751Z,41.40
2019-05-06T05:43:53.607Z,40.93
2019-05-06T05:46:23.190Z,41.17
2019-05-06T05:49:26.917Z,41.03
2019-05-06T05:51:56.522Z,40.92
2019-05-06T05:54:26.486Z,40.83
2019-05-06T05:56:56.816Z,40.88
2019-05-06T05:59:26.364Z,40.93
2019-05-06T06:01:55.923Z,40.85
2019-05-06T06:04:25.466Z,40.76
2019-05-06T06:06:55.092Z,40.65
2019-05-06T06:09:28.190Z,40.58
2019-05-06T06:11:59.449Z,40.42
2019-05-06T06:14:56.025Z,40.21
2019-05-06T06:17:52.341Z,40.31
2019-05-06T06:20:39.873Z,40.34
2019-05-06T06:23:15.392Z,40.35
2019-05-06T06:25:45.197Z,40.36
2019-05-06T06:28:14.771Z,40.18
2019-05-06T06:30:52.063Z,40.14
2019-05-06T06:33:22.316Z,39.96
2019-05-06T06:36:02.873Z,39.97
2019-05-06T06:38:52.577Z,40.02
2019-05-06T06:41:22.813Z,40.06
2019-05-06T06:43:56.195Z,40.09
2019-05-06T06:46:25.806Z,40.04
2019-05-06T06:48:55.823Z,40.05
2019-05-06T06:51:25.493Z,39.92
2019-05-06T06:53:55.226Z,39.89
2019-05-06T06:56:43.791Z,39.78
2019-05-06T06:59:22.078Z,39.78
2019-05-06T07:02:02.730Z,39.86
2019-05-06T07:04:37.211Z,39.83
2019-05-06T07:07:06.885Z,39.83
2019-05-06T07:09:36.476Z,39.81
2019-05-06T07:12:06.135Z,39.79
2019-05-06T07:14:36.367Z,39.69
2019-05-06T07:17:06.057Z,39.67
2019-05-06T07:19:42.263Z,39.64
2019-05-06T07:22:12.741Z,39.64
2019-05-06T07:24:43.087Z,39.66
2019-05-06T07:27:18.662Z,39.53
2019-05-06T07:29:48.895Z,39.58
2019-05-06T07:32:18.724Z,39.53
2019-05-06T07:34:48.299Z,39.51
2019-05-06T07:37:17.930Z,39.57
2019-05-06T07:39:47.480Z,39.53
2019-05-06T07:42:22.886Z,39.48
2019-05-06T07:45:12.481Z,39.49
2019-05-06T07:47:49.802Z,39.44
2019-05-06T07:50:19.383Z,39.45
2019-05-06T07:53:07.852Z,39.38
2019-05-06T07:55:38.211Z,39.44
2019-05-06T07:58:07.975Z,39.38
2019-05-06T08:00:37.772Z,39.37
2019-05-06T08:03:07.349Z,39.20
2019-05-06T08:05:36.882Z,39.26
2019-05-06T08:08:06.431Z,39.34
2019-05-06T08:10:35.999Z,39.29
2019-05-06T08:13:05.562Z,39.26
2019-05-06T08:15:35.272Z,39.21
2019-05-06T08:18:04.913Z,39.29
2019-05-06T08:20:37.568Z,39.29
2019-05-06T08:23:29.415Z,39.20
2019-05-06T08:26:11.685Z,39.28
2019-05-06T08:28:38.642Z,39.20
2019-05-06T08:31:02.356Z,39.22
2019-05-06T08:33:32.759Z,39.18
2019-05-06T08:36:11.336Z,39.07
2019-05-06T08:38:53.327Z,39.08
2019-05-06T08:41:22.877Z,38.98
2019-05-06T08:43:52.969Z,38.96
2019-05-06T08:46:23.538Z,38.89
2019-05-06T08:48:53.312Z,38.84
2019-05-06T08:51:47.992Z,38.93
2019-05-06T08:54:26.850Z,38.75
2019-05-06T08:56:57.102Z,38.76
2019-05-06T08:59:26.669Z,38.80
2019-05-06T09:01:57.645Z,38.81
2019-05-06T09:04:27.555Z,38.65
2019-05-06T09:06:57.231Z,38.71
2019-05-06T09:09:27.052Z,38.75
2019-05-06T09:11:56.700Z,38.69
2019-05-06T09:14:26.272Z,38.82
2019-05-06T09:16:55.828Z,38.66
2019-05-06T09:19:28.513Z,38.70
2019-05-06T09:21:58.069Z,38.75
2019-05-06T09:24:27.927Z,38.74
2019-05-06T09:27:16.493Z,38.74
2019-05-06T09:29:52.409Z,38.67
2019-05-06T09:32:47.393Z,38.71
2019-05-06T09:35:17.199Z,38.72
2019-05-06T09:37:46.813Z,38.70
2019-05-06T09:40:16.399Z,38.62
2019-05-06T09:42:45.968Z,38.67
2019-05-06T09:45:15.560Z,38.74
2019-05-06T09:48:12.614Z,38.63
2019-05-06T09:50:46.089Z,38.64
2019-05-06T09:53:19.688Z,38.65
2019-05-06T09:56:07.420Z,38.64
2019-05-06T09:58:42.623Z,38.55
2019-05-06T10:01:13.105Z,38.64
2019-05-06T10:03:42.951Z,38.62
2019-05-06T10:06:13.121Z,38.64
2019-05-06T10:08:42.756Z,38.56
2019-05-06T10:11:12.362Z,38.60
2019-05-06T10:13:43.072Z,38.61
2019-05-06T10:16:13.070Z,38.62
2019-05-06T10:18:42.711Z,38.60
2019-05-06T10:21:12.581Z,38.57
2019-05-06T10:23:42.485Z,38.50
2019-05-06T10:26:12.926Z,38.53
2019-05-06T10:29:07.826Z,38.56
2019-05-06T10:31:43.184Z,38.57
2019-05-06T10:34:14.211Z,38.58
2019-05-06T10:36:53.316Z,38.49
2019-05-06T10:39:23.742Z,38.56
2019-05-06T10:41:57.782Z,38.60
2019-05-06T10:44:36.873Z,38.52
2019-05-06T10:47:06.696Z,38.56
2019-05-06T10:49:36.277Z,38.55
2019-05-06T10:52:15.266Z,38.57
2019-05-06T10:54:44.798Z,38.41
2019-05-06T10:57:33.343Z,38.54
2019-05-06T11:00:02.929Z,38.43
2019-05-06T11:02:57.573Z,38.45
2019-05-06T11:05:27.207Z,38.47
2019-05-06T11:07:56.773Z,38.45
2019-05-06T11:10:32.137Z,38.49
2019-05-06T11:12:57.992Z,38.43
2019-05-06T11:15:27.651Z,38.39
2019-05-06T11:17:57.242Z,38.43
2019-05-06T11:20:26.837Z,38.44
2019-05-06T11:22:56.404Z,38.42
2019-05-06T11:25:25.981Z,38.18
2019-05-06T11:27:55.861Z,38.27
2019-05-06T11:30:43.464Z,37.94
2019-05-06T11:33:42.551Z,38.25
2019-05-06T11:36:26.146Z,38.06
2019-05-06T11:38:55.706Z,38.00
2019-05-06T11:41:25.268Z,38.01
2019-05-06T11:43:54.825Z,37.78
2019-05-06T11:46:24.370Z,37.61
2019-05-06T11:48:53.917Z,37.60
2019-05-06T11:51:25.213Z,37.61
2019-05-06T11:53:54.775Z,37.39
2019-05-06T11:56:24.334Z,37.58
2019-05-06T11:58:55.087Z,37.47
2019-05-06T12:01:27.798Z,37.25
2019-05-06T12:03:57.706Z,36.99
2019-05-06T12:06:27.787Z,37.14
2019-05-06T12:08:57.388Z,37.04
2019-05-06T12:11:27.040Z,37.08
2019-05-06T12:13:56.585Z,36.93
2019-05-06T12:16:26.554Z,37.08
2019-05-06T12:18:59.782Z,37.04
2019-05-06T12:21:28.406Z,36.83
2019-05-06T12:23:57.948Z,36.83
2019-05-06T12:26:27.815Z,36.87
2019-05-06T12:28:57.382Z,36.84
2019-05-06T12:31:27.006Z,36.90
2019-05-06T12:33:56.612Z,36.99
2019-05-06T12:36:26.242Z,36.43
2019-05-06T12:39:16.028Z,36.71
2019-05-06T12:42:12.690Z,36.48
2019-05-06T12:44:48.730Z,36.33
2019-05-06T12:47:37.280Z,36.49
2019-05-06T12:50:07.123Z,36.44
2019-05-06T12:52:36.753Z,36.30
2019-05-06T12:55:18.227Z,36.31
2019-05-06T12:57:37.774Z,36.44
2019-05-06T13:00:07.548Z,36.27
2019-05-06T13:02:37.168Z,36.08
2019-05-06T13:05:06.781Z,36.23
2019-05-06T13:07:46.082Z,36.02
2019-05-06T13:10:18.384Z,36.20
2019-05-06T13:12:54.076Z,36.13
2019-05-06T13:15:24.590Z,36.13
2019-05-06T13:17:54.256Z,36.21
2019-05-06T13:20:24.138Z,36.30
2019-05-06T13:23:21.189Z,36.17
2019-05-06T13:25:47.428Z,36.16
2019-05-06T13:28:18.583Z,36.02
2019-05-06T13:30:48.145Z,36.02
2019-05-06T13:33:49.174Z,36.04
2019-05-06T13:36:18.801Z,36.06
2019-05-06T13:38:48.394Z,36.00
2019-05-06T13:41:18.022Z,35.94
2019-05-06T13:43:59.463Z,36.07
2019-05-06T13:46:33.266Z,36.08
2019-05-06T13:49:25.483Z,36.16
2019-05-06T13:52:03.352Z,36.12
2019-05-06T13:54:30.967Z,35.98
2019-05-06T13:57:02.724Z,36.16
2019-05-06T13:59:34.767Z,36.15
2019-05-06T14:02:10.809Z,36.17
2019-05-06T14:04:44.250Z,36.22
2019-05-06T14:07:13.089Z,36.21
2019-05-06T14:09:43.733Z,36.02
2019-05-06T14:12:13.691Z,36.01
2019-05-06T14:14:43.518Z,35.81
2019-05-06T14:17:13.326Z,35.86
2019-05-06T14:19:43.223Z,35.92
2019-05-06T14:22:12.853Z,35.81
2019-05-06T14:24:47.223Z,35.86
2019-05-06T14:27:18.359Z,35.74
2019-05-06T14:30:05.412Z,35.86
2019-05-06T14:32:34.961Z,35.89
2019-05-06T14:35:04.770Z,35.95
2019-05-06T14:37:34.387Z,35.90
2019-05-06T14:40:05.697Z,35.98
2019-05-06T14:42:36.061Z,35.93
2019-05-06T14:45:05.686Z,35.95
2019-05-06T14:47:37.671Z,35.99
2019-05-06T14:50:07.591Z,35.85
2019-05-06T14:52:37.142Z,35.74
2019-05-06T14:55:18.309Z,35.95
2019-05-06T14:57:47.857Z,35.82
2019-05-06T15:00:19.519Z,35.73
2019-05-06T15:02:49.117Z,35.62
2019-05-06T15:05:18.877Z,35.25
2019-05-06T15:07:48.720Z,35.23
2019-05-06T15:10:22.983Z,35.33
2019-05-06T15:12:49.529Z,35.03
2019-05-06T15:15:19.093Z,35.38
2019-05-06T15:17:48.665Z,35.41
2019-05-06T15:20:18.224Z,35.20
2019-05-06T15:22:48.028Z,35.42
2019-05-06T15:25:17.886Z,35.70
2019-05-06T15:27:47.469Z,35.52
2019-05-06T15:30:23.237Z,35.64
2019-05-06T15:32:53.049Z,35.69
2019-05-06T15:35:41.895Z,35.71
2019-05-06T15:38:16.523Z,35.63
2019-05-06T15:40:46.209Z,36.50
2019-05-06T15:43:16.049Z,35.85
2019-05-06T15:45:45.644Z,36.09
2019-05-06T15:48:15.249Z,36.29
2019-05-06T15:50:45.968Z,36.43
2019-05-06T15:53:15.683Z,36.33
2019-05-06T15:55:45.290Z,36.46
2019-05-06T15:58:15.131Z,36.35
2019-05-06T16:00:44.742Z,36.22
2019-05-06T16:03:14.283Z,36.46
2019-05-06T16:05:43.935Z,36.53
2019-05-06T16:08:13.536Z,36.33
2019-05-06T16:10:52.655Z,36.39
2019-05-06T16:13:14.714Z,36.64
2019-05-06T16:15:44.289Z,36.61
2019-05-06T16:18:13.826Z,36.68
2019-05-06T16:20:43.378Z,36.74
2019-05-06T16:23:28.336Z,36.75
2019-05-06T16:25:57.945Z,36.92
2019-05-06T16:28:27.673Z,37.10
2019-05-06T16:30:57.224Z,37.00
2019-05-06T16:33:26.808Z,36.80
2019-05-06T16:35:56.363Z,36.98
2019-05-06T16:38:25.950Z,36.98
2019-05-06T16:41:09.437Z,36.97
2019-05-06T16:43:28.218Z,36.93
2019-05-06T16:45:58.191Z,37.29
2019-05-06T16:48:28.468Z,37.18
2019-05-06T16:50:58.099Z,37.13
2019-05-06T16:53:30.179Z,37.26
2019-05-06T16:56:04.602Z,37.40
2019-05-06T16:58:37.264Z,37.43
2019-05-06T17:01:07.053Z,37.45
2019-05-06T17:03:45.859Z,37.49
2019-05-06T17:06:27.448Z,37.25
2019-05-06T17:08:57.020Z,37.74
2019-05-06T17:11:30.869Z,37.75
2019-05-06T17:13:58.155Z,38.55
2019-05-06T17:16:27.750Z,39.27
2019-05-06T17:18:57.290Z,39.40
2019-05-06T17:21:26.939Z,39.58
2019-05-06T17:23:56.504Z,40.52
2019-05-06T17:26:26.239Z,40.48
2019-05-06T17:29:13.929Z,40.31
2019-05-06T17:32:16.991Z,42.35
2019-05-06T17:34:49.809Z,43.25
2019-05-06T17:37:37.261Z,43.96
2019-05-06T17:40:11.798Z,43.84
2019-05-06T17:42:42.068Z,43.87
2019-05-06T17:45:28.741Z,43.16
2019-05-06T17:48:07.271Z,42.83
2019-05-06T17:50:36.858Z,42.73
2019-05-06T17:53:06.739Z,42.05
2019-05-06T17:55:36.578Z,42.10
2019-05-06T17:58:06.215Z,41.81
2019-05-06T18:00:35.807Z,41.07
2019-05-06T18:03:05.547Z,40.83
2019-05-06T18:05:35.134Z,40.57
2019-05-06T18:08:04.719Z,40.77
2019-05-06T18:10:34.798Z,40.54
2019-05-06T18:13:07.265Z,40.66
2019-05-06T18:15:35.731Z,40.44
2019-05-06T18:18:05.358Z,40.47
2019-05-06T18:20:34.935Z,40.42
2019-05-06T18:23:05.104Z,40.24
2019-05-06T18:25:34.649Z,40.26
2019-05-06T18:28:04.216Z,39.83
2019-05-06T18:30:37.055Z,39.93
2019-05-06T18:33:05.316Z,39.72
2019-05-06T18:35:35.341Z,39.60
2019-05-06T18:38:04.902Z,39.54
2019-05-06T18:40:34.586Z,39.71
2019-05-06T18:43:04.180Z,39.61
2019-05-06T18:45:34.064Z,39.44
2019-05-06T18:48:03.631Z,39.40
2019-05-06T18:50:33.188Z,39.17
2019-05-06T18:53:02.890Z,39.15
2019-05-06T18:55:33.170Z,38.95
2019-05-06T18:58:03.049Z,38.92
2019-05-06T19:00:32.655Z,38.69
2019-05-06T19:03:02.771Z,38.68
2019-05-06T19:05:35.992Z,38.47
2019-05-06T19:08:13.424Z,38.45
2019-05-06T19:10:43.022Z,38.23
2019-05-06T19:13:12.941Z,38.36
2019-05-06T19:15:42.586Z,38.48
2019-05-06T19:18:12.973Z,38.57
2019-05-06T19:20:42.627Z,38.60
2019-05-06T19:23:13.077Z,38.68
2019-05-06T19:25:42.933Z,38.46
2019-05-06T19:28:14.319Z,38.45
2019-05-06T19:30:44.017Z,38.49
2019-05-06T19:33:13.941Z,38.30
2019-05-06T19:35:43.956Z,38.27
2019-05-06T19:38:13.516Z,38.29
2019-05-06T19:40:43.090Z,38.25
2019-05-06T19:43:12.650Z,38.12
2019-05-06T19:45:42.352Z,38.10
2019-05-06T19:48:13.397Z,38.12
2019-05-06T19:50:43.458Z,38.00
2019-05-06T19:53:13.034Z,37.84
2019-05-06T19:55:46.653Z,37.90
2019-05-06T19:58:13.886Z,37.82
2019-05-06T20:00:44.060Z,37.87
2019-05-06T20:03:13.648Z,38.05
2019-05-06T20:06:02.322Z,38.18
2019-05-06T20:08:53.555Z,38.27
2019-05-06T20:11:33.492Z,38.34
2019-05-06T20:14:03.062Z,38.48
2019-05-06T20:16:32.642Z,38.59
2019-05-06T20:19:02.424Z,38.69
2019-05-06T20:21:32.821Z,38.77
2019-05-06T20:24:02.572Z,38.85
2019-05-06T20:26:32.519Z,38.82
2019-05-06T20:29:02.360Z,38.82
2019-05-06T20:31:32.262Z,38.86
2019-05-06T20:34:02.369Z,38.83
2019-05-06T20:36:33.236Z,38.94
2019-05-06T20:39:03.152Z,38.84
2019-05-06T20:41:32.975Z,38.88
2019-05-06T20:44:02.849Z,38.87
2019-05-06T20:46:32.455Z,38.85
2019-05-06T20:49:02.570Z,38.85
2019-05-06T20:51:32.783Z,38.84
2019-05-06T20:54:02.615Z,38.86
2019-05-06T20:56:32.745Z,38.87
2019-05-06T20:59:02.558Z,38.85
2019-05-06T21:01:32.652Z,38.91
2019-05-06T21:04:02.380Z,39.05
2019-05-06T21:06:32.326Z,39.23
2019-05-06T21:09:02.263Z,39.38
2019-05-06T21:11:32.648Z,39.41
2019-05-06T21:14:02.462Z,39.44
2019-05-06T21:16:32.139Z,39.42
2019-05-06T21:19:03.125Z,39.39
2019-05-06T21:21:32.848Z,39.33
2019-05-06T21:24:02.469Z,39.24
2019-05-06T21:26:32.990Z,39.31
2019-05-06T21:29:03.300Z,39.37
2019-05-06T21:31:32.949Z,39.35
2019-05-06T21:34:02.596Z,39.25
2019-05-06T21:36:32.406Z,39.19
2019-05-06T21:39:02.107Z,39.17
2019-05-06T21:41:32.725Z,39.24
2019-05-06T21:44:02.572Z,39.33
2019-05-06T21:46:32.091Z,39.20
2019-05-06T21:49:01.634Z,39.30
2019-05-06T21:51:32.811Z,39.36
2019-05-06T21:54:02.942Z,39.39
2019-05-06T21:56:32.970Z,39.30
2019-05-06T21:59:02.535Z,39.25
2019-05-06T22:01:33.055Z,39.24
2019-05-06T22:04:03.244Z,39.19
2019-05-06T22:06:33.271Z,39.22
2019-05-06T22:09:03.732Z,39.17
2019-05-06T22:11:33.286Z,39.15
2019-05-06T22:14:02.854Z,39.13
2019-05-06T22:16:32.509Z,39.07
2019-05-06T22:19:02.568Z,39.09
2019-05-06T22:21:32.686Z,39.08
2019-05-06T22:24:04.690Z,39.04
2019-05-06T22:26:34.538Z,39.03
2019-05-06T22:29:04.118Z,39.04
2019-05-06T22:31:33.695Z,39.03
2019-05-06T22:34:03.328Z,39.02
2019-05-06T22:36:32.938Z,39.01
2019-05-06T22:39:02.723Z,39.00
2019-05-06T22:41:32.763Z,39.01
2019-05-06T22:44:13.136Z,38.97
2019-05-06T22:46:33.917Z,38.96
2019-05-06T22:49:03.471Z,38.94
2019-05-06T22:51:33.058Z,39.00
2019-05-06T22:54:02.884Z,38.99
2019-05-06T22:56:32.852Z,38.95
2019-05-06T22:59:03.193Z,38.93
2019-05-06T23:01:55.534Z,38.95
2019-05-06T23:04:26.707Z,38.94
2019-05-06T23:06:56.252Z,38.97
2019-05-06T23:09:25.837Z,38.93
2019-05-06T23:11:55.392Z,38.89
2019-05-06T23:14:31.374Z,38.89
2019-05-06T23:16:56.238Z,38.89
2019-05-06T23:19:25.775Z,38.91
2019-05-06T23:21:55.377Z,38.89
2019-05-06T23:24:24.981Z,38.88
2019-05-06T23:26:54.924Z,38.90
2019-05-06T23:29:24.757Z,38.87
2019-05-06T23:31:54.284Z,38.88
2019-05-06T23:34:23.920Z,38.90
2019-05-06T23:37:18.071Z,38.88
2019-05-06T23:40:24.738Z,38.91
2019-05-06T23:43:32.933Z,38.86
2019-05-06T23:46:38.311Z,38.85
2019-05-06T23:49:44.396Z,38.87
2019-05-06T23:52:52.041Z,38.90
2019-05-06T23:55:57.884Z,38.94
2019-05-06T23:58:26.187Z,38.95
